Latest Coastal Weather Observations for Mardie

IDW60701

Issued at 4:05 am WST Sunday 21 September 2014 (issued every 10 minutes, with the page automatically refreshed every 10 minutes)

About coastal observations | Map of coastal stations | Coastal observations for WA | Marine services | Other Formats
Station Details ID: 005008 Name: MARDIE Lat: -21.19 Lon: 115.98 Height: 11.0 m
Data from the previous 72 hours. | See also: Recent months at Mardie
Date/Time
WST
Temp

°C
Wind Pressure Rain
since 9am
mm
Weather Cloud Vis
km
Sea
Height
m
Swell
Dir
 
Speed
knots
Gust
knots
hPa Trend Height
m
Period
s
Dir
21/04:00am 18.3 S 4 4 1015.6 - 0.0 - - - - - - -
21/03:30am 18.5 S 3 3 1015.6 - 0.0 - - - - - - -
21/03:00am 18.8 W 3 4 1015.6 - 0.0 - - - - - - -
21/02:30am 19.2 W 1 2 1015.5 - 0.0 - - - - - - -
21/02:00am 20.4 W 2 2 1015.8 - 0.0 - - - - - - -
21/01:30am 20.5 NW 1 3 1015.7 - 0.0 - - - - - - -
21/01:00am 21.1 NW 4 5 1015.6 - 0.0 - - - - - - -
21/12:30am 22.1 W 5 7 1015.3 - 0.0 - - - - - - -
21/12:00am 21.4 W 4 5 1015.6 - 0.0 - - - - - - -
 
Date/Time
WST
Temp

°C
Wind Pressure Rain
since 9am
mm
Weather Cloud Vis
km
Sea
Height
m
Swell
Dir
 
Speed
knots
Gust
knots
hPa Trend Height
m
Period
s
Dir
20/11:30pm 21.9 W 4 5 1016.1 - 0.0 - - - - - - -
20/11:00pm 21.7 NW 3 4 1016.1 - 0.0 - - - - - - -
20/10:30pm 22.6 NW 3 4 1016.1 - 0.0 - - - - - - -
20/10:00pm 23.3 W 5 6 1016.4 - 0.0 - - - - - - -
20/09:30pm 23.9 W 5 7 1016.6 - 0.0 - - - - - - -
20/09:00pm 24.1 W 5 7 1016.5 - 0.0 - - - - - - -
20/08:30pm 24.6 WNW 3 4 1016.3 - 0.0 - - - - - - -
20/08:00pm 25.1 WNW 3 3 1015.9 - 0.0 - - - - - - -
20/07:30pm 25.9 WNW 3 4 1015.2 - 0.0 - - - - - - -
20/07:00pm 26.6 NW 4 5 1015.0 - 0.0 - - - - - - -
20/06:30pm 28.5 WNW 5 6 1014.6 - 0.0 - - - - - - -
20/06:00pm 30.6 WNW 6 7 1013.9 - 0.0 - - - - - - -
20/05:30pm 31.8 WNW 7 9 1013.6 - 0.0 - - - - - - -
20/05:00pm 32.9 WNW 6 8 1013.3 - 0.0 - - - - - - -
20/04:30pm 32.9 WNW 6 10 1013.3 - 0.0 - - - - - - -
20/04:00pm 33.0 W 6 12 1013.1 - 0.0 - - - - - - -
20/03:30pm 33.6 WNW 9 13 1013.1 - 0.0 - - - - - - -
20/03:00pm 33.7 WNW 9 14 1013.0 - 0.0 - - - - - - -
20/02:30pm 34.1 WNW 9 14 1013.0 - 0.0 - - - - - - -
20/02:00pm 33.4 WNW 10 14 1013.2 - 0.0 - - - - - - -
20/01:30pm 34.8 WNW 10 14 1013.5 - 0.0 - - - - - - -
20/01:00pm 33.9 W 11 14 1013.8 - 0.0 - - - - - - -
20/12:30pm 34.9 NW 7 11 1014.3 - 0.0 - - - - - - -
20/12:00pm 33.8 N 6 13 1014.8 - 0.0 - - - - - - -
20/11:30am 33.7 N 7 10 1015.1 - 0.0 - - - - - - -
20/11:00am 33.4 NNW 8 13 1015.6 - 0.0 - - - - - - -
20/10:30am 33.1 NNE 5 8 1015.8 - 0.0 - - - - - - -
20/10:00am 32.9 WNW 1 3 1016.0 - 0.0 - - - - - - -
20/09:30am 31.6 SE 3 5 1016.1 - 0.0 - - - - - - -
20/09:00am 30.4 SE 5 7 1016.1 - 0.0 - - - - - - -
20/08:30am 28.5 SE 5 7 1016.0 - 0.0 - - - - - - -
20/08:00am 25.8 ESE 2 3 1016.1 - 0.0 - - - - - - -
20/07:30am 22.6 ESE 2 3 1015.7 - 0.0 - - - - - - -
20/07:00am 19.4 S 3 3 1015.2 - 0.0 - - - - - - -
20/06:30am 16.8 S 1 2 1014.9 - 0.0 - - - - - - -
20/06:00am 16.3 S 2 2 1014.3 - 0.0 - - - - - - -
20/05:30am 16.4 S 3 3 1014.2 - 0.0 - - - - - - -
20/05:00am 16.9 S 3 4 1013.8 - 0.0 - - - - - - -
20/04:30am 16.9 SSW 4 4 1013.8 - 0.0 - - - - - - -
20/04:00am 17.3 SSW 3 4 1013.8 - 0.0 - - - - - - -
20/03:30am 17.5 S 3 4 1014.0 - 0.0 - - - - - - -
20/03:00am 18.1 S 1 2 1014.1 - 0.0 - - - - - - -
20/02:30am 18.8 S 3 3 1014.2 - 0.0 - - - - - - -
20/02:00am 18.9 SSE 3 3 1014.6 - 0.0 - - - - - - -
20/01:30am 19.4 SSE 3 3 1014.8 - 0.0 - - - - - - -
20/01:00am 20.6 SSE 3 4 1014.9 - 0.0 - - - - - - -
20/12:30am 20.0 SSE 4 4 1015.1 - 0.0 - - - - - - -
20/12:00am 20.2 SSE 4 4 1015.4 - 0.0 - - - - - - -
 
Date/Time
WST
Temp

°C
Wind Pressure Rain
since 9am
mm
Weather Cloud Vis
km
Sea
Height
m
Swell
Dir
 
Speed
knots
Gust
knots
hPa Trend Height
m
Period
s
Dir
19/11:30pm 20.5 S 5 6 1015.6 - 0.0 - - - - - - -
19/11:00pm 21.5 W 2 2 1015.8 - 0.0 - - - - - - -
19/10:30pm 22.1 W 3 3 1015.9 - 0.0 - - - - - - -
19/10:00pm 23.0 W 3 4 1016.1 - 0.0 - - - - - - -
19/09:30pm 23.7 W 4 5 1016.0 - 0.0 - - - - - - -
19/09:00pm 24.5 W 4 6 1016.1 - 0.0 - - - - - - -
19/08:30pm 24.8 W 4 5 1015.8 - 0.0 - - - - - - -
19/08:00pm 25.6 W 5 6 1015.5 - 0.0 - - - - - - -
19/07:30pm 26.6 W 6 8 1015.1 - 0.0 - - - - - - -
19/07:00pm 27.6 W 7 9 1014.9 - 0.0 - - - - - - -
19/06:30pm 28.6 W 7 9 1014.6 - 0.0 - - - - - - -
19/06:00pm 30.2 W 8 10 1014.2 - 0.0 - - - - - - -
19/05:30pm 31.6 W 8 10 1013.9 - 0.0 - - - - - - -
19/05:00pm 32.5 WNW 8 11 1013.7 - 0.0 - - - - - - -
19/04:30pm 33.1 WNW 7 11 1013.4 - 0.0 - - - - - - -
19/04:00pm 33.4 W 7 12 1013.2 - 0.0 - - - - - - -
19/03:30pm 33.1 WNW 6 14 1013.2 - 0.0 - - - - - - -
19/03:00pm 33.3 WNW 8 13 1013.3 - 0.0 - - - - - - -
19/02:30pm 33.9 W 9 13 1013.5 - 0.0 - - - - - - -
19/02:00pm 34.0 WNW 8 15 1013.7 - 0.0 - - - - - - -
19/01:30pm 33.6 WNW 8 14 1014.0 - 0.0 - - - - - - -
19/01:00pm 33.9 NW 8 14 1014.4 - 0.0 - - - - - - -
19/12:30pm 33.2 WNW 9 15 1014.8 - 0.0 - - - - - - -
19/12:00pm 33.4 NW 8 17 1015.1 - 0.0 - - - - - - -
19/11:30am 33.0 NW 6 11 1015.5 - 0.0 - - - - - - -
19/11:00am 33.0 WNW 8 14 1015.9 - 0.0 - - - - - - -
19/10:30am 32.0 SSW 6 12 1016.3 - 0.0 - - - - - - -
19/10:00am 32.1 SSW 6 9 1016.5 - 0.0 - - - - - - -
19/09:30am 30.4 S 5 7 1016.8 - 0.0 - - - - - - -
19/09:00am 27.4 S 4 5 1016.9 - 0.0 - - - - - - -
19/08:30am 25.4 S 4 6 1017.0 - 0.0 - - - - - - -
19/08:00am 22.9 S 4 6 1016.8 - 0.0 - - - - - - -
19/07:30am 20.6 SSE 3 5 1016.6 - 0.0 - - - - - - -
19/07:00am 17.2 SSE 4 5 1016.3 - 0.0 - - - - - - -
19/06:30am 15.1 S 5 6 1015.9 - 0.0 - - - - - - -
19/06:00am 15.1 S 6 7 1015.8 - 0.0 - - - - - - -
19/05:30am 15.2 S 7 8 1015.5 - 0.0 - - - - - - -
19/05:00am 14.8 S 5 6 1015.3 - 0.0 - - - - - - -
19/04:30am 15.2 S 3 4 1015.0 - 0.0 - - - - - - -
19/04:00am 15.7 SSE 3 4 1014.8 - 0.0 - - - - - - -
19/03:30am 16.1 SSE 4 5 1014.8 - 0.0 - - - - - - -
19/03:00am 16.7 SSE 5 6 1014.9 - 0.0 - - - - - - -
19/02:30am 17.6 S 5 6 1015.0 - 0.0 - - - - - - -
19/02:00am 18.4 S 5 6 1015.2 - 0.0 - - - - - - -
19/01:30am 18.9 S 5 5 1015.3 - 0.0 - - - - - - -
19/01:00am 19.5 SW 6 8 1015.4 - 0.0 - - - - - - -
19/12:30am 20.0 WSW 5 7 1015.8 - 0.0 - - - - - - -
19/12:00am 19.9 WSW 4 6 1016.1 - 0.0 - - - - - - -
 
Date/Time
WST
Temp

°C
Wind Pressure Rain
since 9am
mm
Weather Cloud Vis
km
Sea
Height
m
Swell
Dir
 
Speed
knots
Gust
knots
hPa Trend Height
m
Period
s
Dir
18/11:30pm 20.1 WSW 3 4 1016.2 - 0.0 - - - - - - -
18/11:00pm 20.4 WSW 3 4 1016.4 - 0.0 - - - - - - -
18/10:30pm 20.7 WSW 4 5 1016.5 - 0.0 - - - - - - -
18/10:00pm 20.9 W 5 5 1016.4 - 0.0 - - - - - - -
18/09:30pm 21.2 WSW 2 3 1016.6 - 0.0 - - - - - - -
18/09:00pm 22.1 W 6 6 1016.5 - 0.0 - - - - - - -
18/08:30pm 22.4 W 4 6 1016.4 - 0.0 - - - - - - -
18/08:00pm 23.3 W 6 7 1016.1 - 0.0 - - - - - - -
18/07:30pm 23.7 W 6 7 1015.7 - 0.0 - - - - - - -
18/07:00pm 24.5 W 6 8 1015.3 - 0.0 - - - - - - -
18/06:30pm 25.6 W 6 9 1014.9 - 0.0 - - - - - - -
18/06:00pm 27.3 W 9 12 1014.5 - 0.0 - - - - - - -
18/05:30pm 28.6 W 10 15 1014.2 - 0.0 - - - - - - -
18/05:00pm 29.4 W 12 16 1013.9 - 0.0 - - - - - - -
18/04:30pm 30.4 W 13 18 1013.7 - 0.0 - - - - - - -
18/04:00pm 31.1 W 14 19 1013.8 - 0.0 - - - - - - -
18/03:30pm 31.2 W 14 19 1013.9 - 0.0 - - - - - - -
18/03:00pm 31.5 W 14 19 1014.0 - 0.0 - - - - - - -
18/02:30pm 31.9 W 14 19 1014.1 - 0.0 - - - - - - -
18/02:00pm 31.9 W 12 18 1014.4 - 0.0 - - - - - - -
18/01:30pm 31.2 W 10 16 1014.8 - 0.0 - - - - - - -
18/01:00pm 30.7 W 11 15 1015.0 - 0.0 - - - - - - -
18/12:30pm 30.6 WNW 10 15 1015.3 - 0.0 - - - - - - -
18/12:00pm 30.0 W 8 12 1015.7 - 0.0 - - - - - - -
18/11:30am 30.8 W 8 13 1016.1 - 0.0 - - - - - - -
18/11:00am 30.9 WSW 7 16 1016.3 - 0.0 - - - - - - -
18/10:30am 30.0 SW 6 12 1016.5 - 0.0 - - - - - - -
18/10:00am 28.1 SSW 5 10 1016.9 - 0.0 - - - - - - -
18/09:30am 26.7 S 5 8 1016.9 - 0.0 - - - - - - -
18/09:00am 24.6 S 6 9 1016.9 - 0.0 - - - - - - -
18/08:30am 23.2 S 5 7 1016.9 - 0.0 - - - - - - -
18/08:00am 20.9 S 5 7 1016.7 - 0.0 - - - - - - -
18/07:30am 19.0 SSW 4 6 1016.7 - 0.0 - - - - - - -
18/07:00am 17.3 SW 4 5 1016.1 - 0.0 - - - - - - -
18/06:30am 16.4 SW 3 5 1015.8 - 0.0 - - - - - - -
18/06:00am 16.6 SSW 4 5 1015.5 - 0.0 - - - - - - -
18/05:30am 16.5 SW 1 3 1015.5 - 0.0 - - - - - - -
18/05:00am 16.4 WNW 3 5 1015.1 - 0.0 - - - - - - -
18/04:30am 17.0 SSW 3 4 1014.9 - 0.0 - - - - - - -

Other Formats:

Comma delimited format used in spreadsheet applications
http://www.bom.gov.au/fwo/IDW60701/IDW60701.94306.axf

JavaScript Object Notation format (JSON) in row-major order
http://www.bom.gov.au/fwo/IDW60701/IDW60701.94306.json